sensor_id;sensor_type;location;lat;lon;timestamp;temperature;humidity
72602;DHT22;60644;55.858;37.390;2023-01-30T00:00:31;-1.21;72.75
72602;DHT22;60644;55.858;37.390;2023-01-30T00:02:57;-1.25;72.70
72602;DHT22;60644;55.858;37.390;2023-01-30T00:05:23;-1.29;73.15
72602;DHT22;60644;55.858;37.390;2023-01-30T00:07:49;-1.38;73.41
72602;DHT22;60644;55.858;37.390;2023-01-30T00:10:15;-1.43;73.69
72602;DHT22;60644;55.858;37.390;2023-01-30T00:12:41;-1.40;73.66
72602;DHT22;60644;55.858;37.390;2023-01-30T00:15:07;-1.32;73.35
72602;DHT22;60644;55.858;37.390;2023-01-30T00:17:33;-1.32;73.28
72602;DHT22;60644;55.858;37.390;2023-01-30T00:19:59;-1.33;73.43
72602;DHT22;60644;55.858;37.390;2023-01-30T00:22:25;-1.35;73.55
72602;DHT22;60644;55.858;37.390;2023-01-30T00:24:51;-1.30;73.31
72602;DHT22;60644;55.858;37.390;2023-01-30T00:27:17;-1.31;73.30
72602;DHT22;60644;55.858;37.390;2023-01-30T00:29:43;-1.21;73.17
72602;DHT22;60644;55.858;37.390;2023-01-30T00:32:09;-1.23;72.98
72602;DHT22;60644;55.858;37.390;2023-01-30T00:34:34;-1.23;73.06
72602;DHT22;60644;55.858;37.390;2023-01-30T00:37:00;-1.17;72.91
72602;DHT22;60644;55.858;37.390;2023-01-30T00:39:26;-1.20;72.79
72602;DHT22;60644;55.858;37.390;2023-01-30T00:41:53;-1.14;72.48
72602;DHT22;60644;55.858;37.390;2023-01-30T00:44:38;-1.15;72.46
72602;DHT22;60644;55.858;37.390;2023-01-30T00:47:22;-1.19;72.75
72602;DHT22;60644;55.858;37.390;2023-01-30T00:49:52;-1.18;72.60
72602;DHT22;60644;55.858;37.390;2023-01-30T00:52:18;-1.23;72.99
72602;DHT22;60644;55.858;37.390;2023-01-30T00:54:43;-1.21;73.19
72602;DHT22;60644;55.858;37.390;2023-01-30T00:57:09;-1.21;73.16
72602;DHT22;60644;55.858;37.390;2023-01-30T00:59:35;-1.25;73.47
72602;DHT22;60644;55.858;37.390;2023-01-30T01:02:01;-1.34;73.77
72602;DHT22;60644;55.858;37.390;2023-01-30T01:04:27;-1.35;74.03
72602;DHT22;60644;55.858;37.390;2023-01-30T01:06:53;-1.31;74.04
72602;DHT22;60644;55.858;37.390;2023-01-30T01:09:18;-1.28;73.84
72602;DHT22;60644;55.858;37.390;2023-01-30T01:11:44;-1.27;73.99
72602;DHT22;60644;55.858;37.390;2023-01-30T01:14:10;-1.24;73.83
72602;DHT22;60644;55.858;37.390;2023-01-30T01:16:36;-1.27;74.09
72602;DHT22;60644;55.858;37.390;2023-01-30T01:19:02;-1.29;74.35
72602;DHT22;60644;55.858;37.390;2023-01-30T01:21:31;-1.33;74.42
72602;DHT22;60644;55.858;37.390;2023-01-30T01:23:58;-1.27;74.41
72602;DHT22;60644;55.858;37.390;2023-01-30T01:26:25;-1.32;74.66
72602;DHT22;60644;55.858;37.390;2023-01-30T01:28:57;-1.38;74.86
72602;DHT22;60644;55.858;37.390;2023-01-30T01:31:24;-1.38;74.90
72602;DHT22;60644;55.858;37.390;2023-01-30T01:33:50;-1.34;74.67
72602;DHT22;60644;55.858;37.390;2023-01-30T01:36:17;-1.24;74.41
72602;DHT22;60644;55.858;37.390;2023-01-30T01:38:43;-1.24;74.09
72602;DHT22;60644;55.858;37.390;2023-01-30T01:41:10;-1.34;74.52
72602;DHT22;60644;55.858;37.390;2023-01-30T01:46:50;-1.31;74.76
72602;DHT22;60644;55.858;37.390;2023-01-30T01:49:20;-1.39;75.17
72602;DHT22;60644;55.858;37.390;2023-01-30T01:51:57;-1.36;75.21
72602;DHT22;60644;55.858;37.390;2023-01-30T01:54:45;-1.32;75.28
72602;DHT22;60644;55.858;37.390;2023-01-30T01:57:19;-1.41;75.54
72602;DHT22;60644;55.858;37.390;2023-01-30T01:59:51;-1.53;75.81
72602;DHT22;60644;55.858;37.390;2023-01-30T02:02:22;-1.52;76.07
72602;DHT22;60644;55.858;37.390;2023-01-30T02:04:52;-1.50;76.05
72602;DHT22;60644;55.858;37.390;2023-01-30T02:07:44;-1.46;76.01
72602;DHT22;60644;55.858;37.390;2023-01-30T02:10:17;-1.44;75.65
72602;DHT22;60644;55.858;37.390;2023-01-30T02:12:46;-1.39;75.43
72602;DHT22;60644;55.858;37.390;2023-01-30T02:15:12;-1.54;76.06
72602;DHT22;60644;55.858;37.390;2023-01-30T02:17:42;-1.64;76.99
72602;DHT22;60644;55.858;37.390;2023-01-30T02:20:20;-1.64;77.37
72602;DHT22;60644;55.858;37.390;2023-01-30T02:23:40;-1.63;77.36
72602;DHT22;60644;55.858;37.390;2023-01-30T02:32:06;-1.60;77.73
72602;DHT22;60644;55.858;37.390;2023-01-30T02:48:42;-1.55;77.04
72602;DHT22;60644;55.858;37.390;2023-01-30T02:51:13;-1.56;76.74
72602;DHT22;60644;55.858;37.390;2023-01-30T02:53:42;-1.53;76.53
72602;DHT22;60644;55.858;37.390;2023-01-30T02:56:08;-1.52;76.37
72602;DHT22;60644;55.858;37.390;2023-01-30T02:58:38;-1.43;76.18
72602;DHT22;60644;55.858;37.390;2023-01-30T03:07:33;-1.29;75.42
72602;DHT22;60644;55.858;37.390;2023-01-30T03:10:35;-1.27;75.09
72602;DHT22;60644;55.858;37.390;2023-01-30T03:13:05;-1.30;74.53
72602;DHT22;60644;55.858;37.390;2023-01-30T03:15:40;-1.25;74.39
72602;DHT22;60644;55.858;37.390;2023-01-30T03:18:08;-1.26;74.28
72602;DHT22;60644;55.858;37.390;2023-01-30T03:20:39;-1.26;74.22
72602;DHT22;60644;55.858;37.390;2023-01-30T03:23:06;-1.24;73.95
72602;DHT22;60644;55.858;37.390;2023-01-30T03:25:35;-1.28;73.88
72602;DHT22;60644;55.858;37.390;2023-01-30T03:28:02;-1.27;73.86
72602;DHT22;60644;55.858;37.390;2023-01-30T03:30:29;-1.42;74.27
72602;DHT22;60644;55.858;37.390;2023-01-30T03:33:03;-1.38;74.08
72602;DHT22;60644;55.858;37.390;2023-01-30T03:35:29;-1.31;74.09
72602;DHT22;60644;55.858;37.390;2023-01-30T03:37:57;-1.28;73.84
72602;DHT22;60644;55.858;37.390;2023-01-30T03:40:23;-1.28;73.88
72602;DHT22;60644;55.858;37.390;2023-01-30T03:42:49;-1.31;73.64
72602;DHT22;60644;55.858;37.390;2023-01-30T03:45:16;-1.24;73.56
72602;DHT22;60644;55.858;37.390;2023-01-30T03:47:42;-1.14;73.38
72602;DHT22;60644;55.858;37.390;2023-01-30T03:50:09;-1.13;72.92
72602;DHT22;60644;55.858;37.390;2023-01-30T03:52:35;-1.23;73.10
72602;DHT22;60644;55.858;37.390;2023-01-30T03:55:02;-1.27;73.36
72602;DHT22;60644;55.858;37.390;2023-01-30T03:57:30;-1.20;73.26
72602;DHT22;60644;55.858;37.390;2023-01-30T03:59:56;-1.23;73.28
72602;DHT22;60644;55.858;37.390;2023-01-30T04:02:22;-1.27;73.25
72602;DHT22;60644;55.858;37.390;2023-01-30T04:04:49;-1.29;73.42
72602;DHT22;60644;55.858;37.390;2023-01-30T04:07:15;-1.23;73.20
72602;DHT22;60644;55.858;37.390;2023-01-30T04:09:44;-1.28;73.27
72602;DHT22;60644;55.858;37.390;2023-01-30T04:12:12;-1.27;73.32
72602;DHT22;60644;55.858;37.390;2023-01-30T04:14:47;-1.20;73.00
72602;DHT22;60644;55.858;37.390;2023-01-30T04:17:36;-1.44;73.73
72602;DHT22;60644;55.858;37.390;2023-01-30T04:20:20;-1.40;73.71
72602;DHT22;60644;55.858;37.390;2023-01-30T04:22:51;-1.31;73.44
72602;DHT22;60644;55.858;37.390;2023-01-30T04:25:17;-1.32;73.22
72602;DHT22;60644;55.858;37.390;2023-01-30T04:27:43;-1.29;73.31
72602;DHT22;60644;55.858;37.390;2023-01-30T04:30:14;-1.23;73.28
72602;DHT22;60644;55.858;37.390;2023-01-30T04:32:41;-1.20;72.93
72602;DHT22;60644;55.858;37.390;2023-01-30T04:35:08;-1.17;72.85
72602;DHT22;60644;55.858;37.390;2023-01-30T04:37:34;-1.19;72.72
72602;DHT22;60644;55.858;37.390;2023-01-30T04:40:00;-1.18;72.78
72602;DHT22;60644;55.858;37.390;2023-01-30T04:42:29;-1.20;72.51
72602;DHT22;60644;55.858;37.390;2023-01-30T04:45:13;-1.15;72.70
72602;DHT22;60644;55.858;37.390;2023-01-30T04:47:39;-1.06;72.57
72602;DHT22;60644;55.858;37.390;2023-01-30T04:50:05;-1.00;72.47
72602;DHT22;60644;55.858;37.390;2023-01-30T04:52:31;-1.00;72.21
72602;DHT22;60644;55.858;37.390;2023-01-30T04:54:57;-1.03;72.05
72602;DHT22;60644;55.858;37.390;2023-01-30T04:57:23;-1.01;72.09
72602;DHT22;60644;55.858;37.390;2023-01-30T04:59:49;-1.06;72.00
72602;DHT22;60644;55.858;37.390;2023-01-30T05:02:16;-1.09;71.98
72602;DHT22;60644;55.858;37.390;2023-01-30T05:04:42;-1.03;71.95
72602;DHT22;60644;55.858;37.390;2023-01-30T05:07:08;-1.03;71.96
72602;DHT22;60644;55.858;37.390;2023-01-30T05:09:34;-1.02;71.80
72602;DHT22;60644;55.858;37.390;2023-01-30T05:12:00;-1.05;71.87
72602;DHT22;60644;55.858;37.390;2023-01-30T05:14:25;-1.06;71.82
72602;DHT22;60644;55.858;37.390;2023-01-30T05:16:51;-1.10;71.95
72602;DHT22;60644;55.858;37.390;2023-01-30T05:19:17;-1.14;72.04
72602;DHT22;60644;55.858;37.390;2023-01-30T05:21:43;-1.11;71.98
72602;DHT22;60644;55.858;37.390;2023-01-30T05:24:08;-1.14;72.02
72602;DHT22;60644;55.858;37.390;2023-01-30T05:26:34;-1.11;72.13
72602;DHT22;60644;55.858;37.390;2023-01-30T05:29:00;-1.18;72.45
72602;DHT22;60644;55.858;37.390;2023-01-30T05:31:27;-1.13;72.36
72602;DHT22;60644;55.858;37.390;2023-01-30T05:33:53;-1.10;72.31
72602;DHT22;60644;55.858;37.390;2023-01-30T05:36:20;-1.05;72.16
72602;DHT22;60644;55.858;37.390;2023-01-30T05:38:46;-1.04;72.11
72602;DHT22;60644;55.858;37.390;2023-01-30T05:41:13;-1.01;72.03
72602;DHT22;60644;55.858;37.390;2023-01-30T05:43:40;-1.03;72.09
72602;DHT22;60644;55.858;37.390;2023-01-30T05:46:06;-1.02;72.07
72602;DHT22;60644;55.858;37.390;2023-01-30T05:48:34;-1.01;72.03
72602;DHT22;60644;55.858;37.390;2023-01-30T05:51:00;-0.98;72.00
72602;DHT22;60644;55.858;37.390;2023-01-30T05:53:28;-0.95;71.87
72602;DHT22;60644;55.858;37.390;2023-01-30T05:56:00;-0.96;71.89
72602;DHT22;60644;55.858;37.390;2023-01-30T05:58:26;-0.95;71.85
72602;DHT22;60644;55.858;37.390;2023-01-30T06:00:53;-0.96;71.92
72602;DHT22;60644;55.858;37.390;2023-01-30T06:03:19;-0.97;71.95
72602;DHT22;60644;55.858;37.390;2023-01-30T06:05:45;-0.91;71.80
72602;DHT22;60644;55.858;37.390;2023-01-30T06:08:11;-0.94;71.78
72602;DHT22;60644;55.858;37.390;2023-01-30T06:10:36;-0.89;71.80
72602;DHT22;60644;55.858;37.390;2023-01-30T06:13:03;-0.88;71.77
72602;DHT22;60644;55.858;37.390;2023-01-30T06:15:29;-0.87;71.77
72602;DHT22;60644;55.858;37.390;2023-01-30T06:17:55;-0.88;71.84
72602;DHT22;60644;55.858;37.390;2023-01-30T06:20:20;-0.82;71.83
72602;DHT22;60644;55.858;37.390;2023-01-30T06:22:47;-0.90;71.75
72602;DHT22;60644;55.858;37.390;2023-01-30T06:25:13;-0.93;72.06
72602;DHT22;60644;55.858;37.390;2023-01-30T06:27:41;-0.95;72.14
72602;DHT22;60644;55.858;37.390;2023-01-30T06:30:08;-0.93;72.16
72602;DHT22;60644;55.858;37.390;2023-01-30T06:32:34;-1.15;73.22
72602;DHT22;60644;55.858;37.390;2023-01-30T06:35:00;-1.25;73.61
72602;DHT22;60644;55.858;37.390;2023-01-30T06:37:25;-1.16;73.44
72602;DHT22;60644;55.858;37.390;2023-01-30T06:39:51;-1.33;74.33
72602;DHT22;60644;55.858;37.390;2023-01-30T06:42:17;-1.28;74.18
72602;DHT22;60644;55.858;37.390;2023-01-30T06:44:43;-1.25;74.09
72602;DHT22;60644;55.858;37.390;2023-01-30T06:47:09;-1.17;73.85
72602;DHT22;60644;55.858;37.390;2023-01-30T06:49:34;-1.12;73.86
72602;DHT22;60644;55.858;37.390;2023-01-30T06:52:00;-1.13;73.82
72602;DHT22;60644;55.858;37.390;2023-01-30T06:54:26;-1.02;73.55
72602;DHT22;60644;55.858;37.390;2023-01-30T06:56:52;-0.99;73.28
72602;DHT22;60644;55.858;37.390;2023-01-30T06:59:18;-1.04;73.43
72602;DHT22;60644;55.858;37.390;2023-01-30T07:01:44;-1.06;73.62
72602;DHT22;60644;55.858;37.390;2023-01-30T07:04:10;-1.13;73.96
72602;DHT22;60644;55.858;37.390;2023-01-30T07:06:39;-1.08;73.77
72602;DHT22;60644;55.858;37.390;2023-01-30T07:09:04;-1.15;74.12
72602;DHT22;60644;55.858;37.390;2023-01-30T07:11:30;-1.12;74.25
72602;DHT22;60644;55.858;37.390;2023-01-30T07:13:56;-1.18;74.27
72602;DHT22;60644;55.858;37.390;2023-01-30T07:16:22;-1.05;73.91
72602;DHT22;60644;55.858;37.390;2023-01-30T07:18:56;-0.96;73.40
72602;DHT22;60644;55.858;37.390;2023-01-30T07:21:26;-0.91;73.35
72602;DHT22;60644;55.858;37.390;2023-01-30T07:23:52;-0.86;73.29
72602;DHT22;60644;55.858;37.390;2023-01-30T07:26:18;-0.82;73.10
72602;DHT22;60644;55.858;37.390;2023-01-30T07:28:43;-0.75;72.87
72602;DHT22;60644;55.858;37.390;2023-01-30T07:31:09;-0.70;72.77
72602;DHT22;60644;55.858;37.390;2023-01-30T07:33:35;-0.68;72.70
72602;DHT22;60644;55.858;37.390;2023-01-30T07:36:01;-0.71;72.56
72602;DHT22;60644;55.858;37.390;2023-01-30T07:38:27;-0.74;72.69
72602;DHT22;60644;55.858;37.390;2023-01-30T07:40:52;-0.74;72.85
72602;DHT22;60644;55.858;37.390;2023-01-30T07:43:18;-0.71;72.74
72602;DHT22;60644;55.858;37.390;2023-01-30T07:45:46;-0.73;72.72
72602;DHT22;60644;55.858;37.390;2023-01-30T07:48:15;-0.68;72.70
72602;DHT22;60644;55.858;37.390;2023-01-30T07:50:41;-0.64;72.58
72602;DHT22;60644;55.858;37.390;2023-01-30T07:53:09;-0.60;72.51
72602;DHT22;60644;55.858;37.390;2023-01-30T07:55:36;-0.57;72.36
72602;DHT22;60644;55.858;37.390;2023-01-30T07:58:02;-0.58;72.52
72602;DHT22;60644;55.858;37.390;2023-01-30T08:00:29;-0.60;72.51
72602;DHT22;60644;55.858;37.390;2023-01-30T08:02:55;-0.55;72.48
72602;DHT22;60644;55.858;37.390;2023-01-30T08:05:21;-0.54;72.59
72602;DHT22;60644;55.858;37.390;2023-01-30T08:07:47;-0.52;72.77
72602;DHT22;60644;55.858;37.390;2023-01-30T08:10:13;-0.54;72.90
72602;DHT22;60644;55.858;37.390;2023-01-30T08:12:39;-0.57;73.45
72602;DHT22;60644;55.858;37.390;2023-01-30T08:15:07;-0.57;73.70
72602;DHT22;60644;55.858;37.390;2023-01-30T08:17:33;-0.56;73.53
72602;DHT22;60644;55.858;37.390;2023-01-30T08:20:02;-0.57;73.51
72602;DHT22;60644;55.858;37.390;2023-01-30T08:22:31;-0.56;73.44
72602;DHT22;60644;55.858;37.390;2023-01-30T08:24:57;-0.49;73.49
72602;DHT22;60644;55.858;37.390;2023-01-30T08:27:23;-0.46;73.29
72602;DHT22;60644;55.858;37.390;2023-01-30T08:29:49;-0.46;73.22
72602;DHT22;60644;55.858;37.390;2023-01-30T08:32:15;-0.50;73.26
72602;DHT22;60644;55.858;37.390;2023-01-30T08:34:41;-0.46;73.23
72602;DHT22;60644;55.858;37.390;2023-01-30T08:37:07;-0.50;73.34
72602;DHT22;60644;55.858;37.390;2023-01-30T08:39:33;-0.49;73.42
72602;DHT22;60644;55.858;37.390;2023-01-30T08:41:59;-0.43;73.32
72602;DHT22;60644;55.858;37.390;2023-01-30T08:44:24;-0.46;73.21
72602;DHT22;60644;55.858;37.390;2023-01-30T08:46:50;-0.45;73.18
72602;DHT22;60644;55.858;37.390;2023-01-30T08:49:16;-0.43;73.19
72602;DHT22;60644;55.858;37.390;2023-01-30T08:51:42;-0.43;73.01
72602;DHT22;60644;55.858;37.390;2023-01-30T08:54:09;-0.42;72.87
72602;DHT22;60644;55.858;37.390;2023-01-30T08:56:35;-0.42;72.98
72602;DHT22;60644;55.858;37.390;2023-01-30T08:59:01;-0.39;72.80
72602;DHT22;60644;55.858;37.390;2023-01-30T09:01:27;-0.40;72.97
72602;DHT22;60644;55.858;37.390;2023-01-30T09:03:53;-0.37;73.03
72602;DHT22;60644;55.858;37.390;2023-01-30T09:06:18;-0.35;73.03
72602;DHT22;60644;55.858;37.390;2023-01-30T09:08:44;-0.30;73.00
72602;DHT22;60644;55.858;37.390;2023-01-30T09:11:10;-0.24;72.96
72602;DHT22;60644;55.858;37.390;2023-01-30T09:13:37;-0.24;73.13
72602;DHT22;60644;55.858;37.390;2023-01-30T09:16:09;-0.25;73.24
72602;DHT22;60644;55.858;37.390;2023-01-30T09:18:42;-0.28;73.48
72602;DHT22;60644;55.858;37.390;2023-01-30T09:21:10;-0.25;72.89
72602;DHT22;60644;55.858;37.390;2023-01-30T09:23:36;-0.34;72.90
72602;DHT22;60644;55.858;37.390;2023-01-30T09:26:03;-0.34;73.09
72602;DHT22;60644;55.858;37.390;2023-01-30T09:28:30;-0.32;73.08
72602;DHT22;60644;55.858;37.390;2023-01-30T09:30:57;-0.30;72.87
72602;DHT22;60644;55.858;37.390;2023-01-30T09:33:23;-0.28;72.84
72602;DHT22;60644;55.858;37.390;2023-01-30T09:35:49;-0.28;72.83
72602;DHT22;60644;55.858;37.390;2023-01-30T09:38:16;-0.26;72.72
72602;DHT22;60644;55.858;37.390;2023-01-30T09:41:07;-0.21;72.63
72602;DHT22;60644;55.858;37.390;2023-01-30T09:43:56;-0.24;72.49
72602;DHT22;60644;55.858;37.390;2023-01-30T09:47:37;-0.20;72.38
72602;DHT22;60644;55.858;37.390;2023-01-30T09:49:35;-0.13;72.23
72602;DHT22;60644;55.858;37.390;2023-01-30T09:57:40;-0.13;72.18
72602;DHT22;60644;55.858;37.390;2023-01-30T10:00:14;-0.12;72.09
72602;DHT22;60644;55.858;37.390;2023-01-30T10:11:20;-0.07;72.00
72602;DHT22;60644;55.858;37.390;2023-01-30T10:25:17;0.13;71.91
72602;DHT22;60644;55.858;37.390;2023-01-30T10:27:35;0.08;72.13
72602;DHT22;60644;55.858;37.390;2023-01-30T10:30:05;0.09;72.25
72602;DHT22;60644;55.858;37.390;2023-01-30T10:32:43;0.12;72.28
72602;DHT22;60644;55.858;37.390;2023-01-30T10:35:22;0.08;72.34
72602;DHT22;60644;55.858;37.390;2023-01-30T10:37:55;0.04;72.41
72602;DHT22;60644;55.858;37.390;2023-01-30T10:40:30;0.04;72.85
72602;DHT22;60644;55.858;37.390;2023-01-30T10:51:37;0.14;74.38
72602;DHT22;60644;55.858;37.390;2023-01-30T10:54:36;0.14;73.83
72602;DHT22;60644;55.858;37.390;2023-01-30T10:57:15;0.17;73.78
72602;DHT22;60644;55.858;37.390;2023-01-30T10:59:51;0.20;73.88
72602;DHT22;60644;55.858;37.390;2023-01-30T11:02:29;0.18;73.76
72602;DHT22;60644;55.858;37.390;2023-01-30T11:05:13;0.09;73.78
72602;DHT22;60644;55.858;37.390;2023-01-30T11:07:41;0.12;73.55
72602;DHT22;60644;55.858;37.390;2023-01-30T11:10:37;0.16;73.72
72602;DHT22;60644;55.858;37.390;2023-01-30T11:13:16;0.18;73.34
72602;DHT22;60644;55.858;37.390;2023-01-30T11:15:45;0.21;73.17
72602;DHT22;60644;55.858;37.390;2023-01-30T11:18:12;0.18;73.34
72602;DHT22;60644;55.858;37.390;2023-01-30T11:20:40;0.14;73.84
72602;DHT22;60644;55.858;37.390;2023-01-30T11:23:53;0.13;74.08
72602;DHT22;60644;55.858;37.390;2023-01-30T11:25:56;0.15;73.59
72602;DHT22;60644;55.858;37.390;2023-01-30T11:28:23;0.15;73.96
72602;DHT22;60644;55.858;37.390;2023-01-30T11:30:53;0.16;74.34
72602;DHT22;60644;55.858;37.390;2023-01-30T11:33:24;0.19;74.09
72602;DHT22;60644;55.858;37.390;2023-01-30T11:35:59;0.20;74.00
72602;DHT22;60644;55.858;37.390;2023-01-30T11:38:30;0.20;73.80
72602;DHT22;60644;55.858;37.390;2023-01-30T11:43:37;0.17;73.84
72602;DHT22;60644;55.858;37.390;2023-01-30T11:46:15;0.22;73.35
72602;DHT22;60644;55.858;37.390;2023-01-30T11:49:12;0.24;73.90
72602;DHT22;60644;55.858;37.390;2023-01-30T11:51:40;0.28;73.94
72602;DHT22;60644;55.858;37.390;2023-01-30T11:54:17;0.25;74.31
72602;DHT22;60644;55.858;37.390;2023-01-30T11:56:54;0.27;74.44
72602;DHT22;60644;55.858;37.390;2023-01-30T12:02:22;0.18;74.99
72602;DHT22;60644;55.858;37.390;2023-01-30T12:04:56;0.19;74.64
72602;DHT22;60644;55.858;37.390;2023-01-30T12:07:29;0.12;74.71
72602;DHT22;60644;55.858;37.390;2023-01-30T12:09:56;0.13;74.92
72602;DHT22;60644;55.858;37.390;2023-01-30T12:12:32;0.16;74.73
72602;DHT22;60644;55.858;37.390;2023-01-30T12:15:23;0.17;74.42
72602;DHT22;60644;55.858;37.390;2023-01-30T12:18:17;0.13;74.41
72602;DHT22;60644;55.858;37.390;2023-01-30T12:23:30;0.12;74.90
72602;DHT22;60644;55.858;37.390;2023-01-30T12:31:45;0.17;75.06
72602;DHT22;60644;55.858;37.390;2023-01-30T12:34:13;0.06;75.99
72602;DHT22;60644;55.858;37.390;2023-01-30T12:36:49;0.13;76.66
72602;DHT22;60644;55.858;37.390;2023-01-30T12:47:39;0.25;75.44
72602;DHT22;60644;55.858;37.390;2023-01-30T12:50:32;0.20;75.31
72602;DHT22;60644;55.858;37.390;2023-01-30T13:15:01;0.16;74.84
72602;DHT22;60644;55.858;37.390;2023-01-30T13:17:55;0.17;74.42
72602;DHT22;60644;55.858;37.390;2023-01-30T13:21:00;0.17;74.44
72602;DHT22;60644;55.858;37.390;2023-01-30T13:26:27;0.15;74.63
72602;DHT22;60644;55.858;37.390;2023-01-30T13:28:58;0.16;74.54
72602;DHT22;60644;55.858;37.390;2023-01-30T13:31:27;0.16;74.76
72602;DHT22;60644;55.858;37.390;2023-01-30T13:34:20;0.15;74.73
72602;DHT22;60644;55.858;37.390;2023-01-30T13:39:31;0.13;75.38
72602;DHT22;60644;55.858;37.390;2023-01-30T13:41:59;0.16;75.47
72602;DHT22;60644;55.858;37.390;2023-01-30T13:44:28;0.20;75.77
72602;DHT22;60644;55.858;37.390;2023-01-30T13:46:56;0.19;75.32
72602;DHT22;60644;55.858;37.390;2023-01-30T13:49:48;0.17;75.63
72602;DHT22;60644;55.858;37.390;2023-01-30T13:55:05;0.17;76.14
72602;DHT22;60644;55.858;37.390;2023-01-30T14:00:24;0.20;75.74
72602;DHT22;60644;55.858;37.390;2023-01-30T14:08:49;0.20;75.60
72602;DHT22;60644;55.858;37.390;2023-01-30T14:11:32;0.21;75.66
72602;DHT22;60644;55.858;37.390;2023-01-30T14:16:51;0.17;75.49
72602;DHT22;60644;55.858;37.390;2023-01-30T14:19:33;0.16;75.38
72602;DHT22;60644;55.858;37.390;2023-01-30T14:22:20;0.15;74.99
72602;DHT22;60644;55.858;37.390;2023-01-30T14:27:49;0.10;74.37
72602;DHT22;60644;55.858;37.390;2023-01-30T14:30:49;0.18;74.18
72602;DHT22;60644;55.858;37.390;2023-01-30T14:35:45;0.01;73.64
72602;DHT22;60644;55.858;37.390;2023-01-30T14:38:20;0.05;73.15
72602;DHT22;60644;55.858;37.390;2023-01-30T14:56:59;0.14;72.00
72602;DHT22;60644;55.858;37.390;2023-01-30T15:10:05;0.18;70.96
72602;DHT22;60644;55.858;37.390;2023-01-30T15:15:56;0.25;70.73
72602;DHT22;60644;55.858;37.390;2023-01-30T15:31:56;0.19;70.61
72602;DHT22;60644;55.858;37.390;2023-01-30T15:34:23;0.30;70.48
72602;DHT22;60644;55.858;37.390;2023-01-30T15:36:51;0.36;70.43
72602;DHT22;60644;55.858;37.390;2023-01-30T15:39:20;0.38;70.11
72602;DHT22;60644;55.858;37.390;2023-01-30T15:41:49;0.50;70.19
72602;DHT22;60644;55.858;37.390;2023-01-30T15:52:08;0.51;69.74
72602;DHT22;60644;55.858;37.390;2023-01-30T15:54:36;0.48;69.59
72602;DHT22;60644;55.858;37.390;2023-01-30T15:57:02;0.50;69.74
72602;DHT22;60644;55.858;37.390;2023-01-30T15:59:33;0.50;69.78
72602;DHT22;60644;55.858;37.390;2023-01-30T16:07:30;0.45;69.48
72602;DHT22;60644;55.858;37.390;2023-01-30T16:09:56;0.37;69.73
72602;DHT22;60644;55.858;37.390;2023-01-30T16:12:29;0.35;69.80
72602;DHT22;60644;55.858;37.390;2023-01-30T16:14:56;0.31;69.76
72602;DHT22;60644;55.858;37.390;2023-01-30T16:17:25;0.39;69.40
72602;DHT22;60644;55.858;37.390;2023-01-30T16:19:52;0.43;69.37
72602;DHT22;60644;55.858;37.390;2023-01-30T16:22:19;0.35;69.36
72602;DHT22;60644;55.858;37.390;2023-01-30T16:24:51;0.45;69.12
72602;DHT22;60644;55.858;37.390;2023-01-30T16:27:31;0.44;69.45
72602;DHT22;60644;55.858;37.390;2023-01-30T16:30:00;0.50;68.74
72602;DHT22;60644;55.858;37.390;2023-01-30T16:32:30;0.45;68.91
72602;DHT22;60644;55.858;37.390;2023-01-30T16:35:24;0.39;69.23
72602;DHT22;60644;55.858;37.390;2023-01-30T16:37:52;0.45;68.74
72602;DHT22;60644;55.858;37.390;2023-01-30T16:40:23;0.37;69.11
72602;DHT22;60644;55.858;37.390;2023-01-30T16:42:59;0.44;68.81
72602;DHT22;60644;55.858;37.390;2023-01-30T16:51:03;0.37;69.01
72602;DHT22;60644;55.858;37.390;2023-01-30T16:53:32;0.38;68.81
72602;DHT22;60644;55.858;37.390;2023-01-30T16:56:01;0.28;68.96
72602;DHT22;60644;55.858;37.390;2023-01-30T16:58:31;0.38;68.94
72602;DHT22;60644;55.858;37.390;2023-01-30T17:01:06;0.38;68.54
72602;DHT22;60644;55.858;37.390;2023-01-30T17:03:38;0.43;68.66
72602;DHT22;60644;55.858;37.390;2023-01-30T17:06:07;0.35;68.46
72602;DHT22;60644;55.858;37.390;2023-01-30T17:08:52;0.42;68.20
72602;DHT22;60644;55.858;37.390;2023-01-30T17:11:33;0.43;68.50
72602;DHT22;60644;55.858;37.390;2023-01-30T17:16:46;0.33;68.56
72602;DHT22;60644;55.858;37.390;2023-01-30T17:19:23;0.39;68.71
72602;DHT22;60644;55.858;37.390;2023-01-30T17:21:50;0.39;68.88
72602;DHT22;60644;55.858;37.390;2023-01-30T17:24:22;0.33;69.14
72602;DHT22;60644;55.858;37.390;2023-01-30T17:26:51;0.34;69.08
72602;DHT22;60644;55.858;37.390;2023-01-30T17:29:17;0.31;69.53
72602;DHT22;60644;55.858;37.390;2023-01-30T17:31:48;0.37;69.23
72602;DHT22;60644;55.858;37.390;2023-01-30T17:34:15;0.46;69.25
72602;DHT22;60644;55.858;37.390;2023-01-30T17:36:42;0.44;69.23
72602;DHT22;60644;55.858;37.390;2023-01-30T17:39:13;0.40;69.58
72602;DHT22;60644;55.858;37.390;2023-01-30T17:41:40;0.34;69.85
72602;DHT22;60644;55.858;37.390;2023-01-30T17:44:06;0.37;69.92
72602;DHT22;60644;55.858;37.390;2023-01-30T17:46:39;0.25;70.10
72602;DHT22;60644;55.858;37.390;2023-01-30T17:49:18;0.27;70.25
72602;DHT22;60644;55.858;37.390;2023-01-30T17:51:44;0.39;69.97
72602;DHT22;60644;55.858;37.390;2023-01-30T17:54:11;0.40;69.61
72602;DHT22;60644;55.858;37.390;2023-01-30T17:56:40;0.43;69.64
72602;DHT22;60644;55.858;37.390;2023-01-30T17:59:13;0.25;69.94
72602;DHT22;60644;55.858;37.390;2023-01-30T18:01:43;0.28;69.97
72602;DHT22;60644;55.858;37.390;2023-01-30T18:04:09;0.31;70.07
72602;DHT22;60644;55.858;37.390;2023-01-30T18:06:36;0.31;69.89
72602;DHT22;60644;55.858;37.390;2023-01-30T18:09:02;0.24;70.07
72602;DHT22;60644;55.858;37.390;2023-01-30T18:11:29;0.23;70.17
72602;DHT22;60644;55.858;37.390;2023-01-30T18:13:55;0.05;71.46
72602;DHT22;60644;55.858;37.390;2023-01-30T18:16:29;0.15;70.96
72602;DHT22;60644;55.858;37.390;2023-01-30T18:18:57;0.18;70.75
72602;DHT22;60644;55.858;37.390;2023-01-30T18:21:23;0.25;70.38
72602;DHT22;60644;55.858;37.390;2023-01-30T18:23:49;0.27;70.16
72602;DHT22;60644;55.858;37.390;2023-01-30T18:26:16;0.28;70.12
72602;DHT22;60644;55.858;37.390;2023-01-30T18:28:43;0.24;70.03
72602;DHT22;60644;55.858;37.390;2023-01-30T18:31:10;0.28;70.11
72602;DHT22;60644;55.858;37.390;2023-01-30T18:33:37;0.20;70.27
72602;DHT22;60644;55.858;37.390;2023-01-30T18:36:08;0.20;70.25
72602;DHT22;60644;55.858;37.390;2023-01-30T18:38:35;0.33;69.84
72602;DHT22;60644;55.858;37.390;2023-01-30T18:41:09;0.21;70.02
72602;DHT22;60644;55.858;37.390;2023-01-30T18:43:36;0.29;70.35
72602;DHT22;60644;55.858;37.390;2023-01-30T18:46:07;0.21;69.77
72602;DHT22;60644;55.858;37.390;2023-01-30T18:48:34;0.23;69.72
72602;DHT22;60644;55.858;37.390;2023-01-30T18:51:07;0.32;69.98
72602;DHT22;60644;55.858;37.390;2023-01-30T18:53:34;0.39;69.79
72602;DHT22;60644;55.858;37.390;2023-01-30T18:56:00;0.44;70.07
72602;DHT22;60644;55.858;37.390;2023-01-30T18:58:30;0.35;70.10